Keret — UAEH — position and weather

sailwx.info

Track history (hours):
 
Tides and Currents Weather Stations Pressure Air Temp Water Temp Dewpoint Dewpoint Depression Visibility Wind Speed Wind Dir Waves Ship Positions

Keret

Last reported at 2014-Dec-14 11:08 UTC. Time now 2014-Dec-21 04:04 UTC.
Position N 55°34' E 015°13'.

Length 82 m; draft 3.2 m.

Type: Cargo ship. MMSI: 273333000.

Date/timePositionNaut miles runAvg speedWind from/ knotsBaromVisibWave heightAir tempDewpointWater temp
2014-Dec-14 11:08N 55°34' E 015°13'610.3
2014-Dec-14 10:33N 55°31' E 015°03'1010.2
2014-Dec-14 09:33N 55°26' E 014°48'1010.3
2014-Dec-14 08:33N 55°20' E 014°33'1110.7
2014-Dec-14 07:33N 55°11' E 014°22'1110.6
2014-Dec-14 06:33N 55°03' E 014°11'1010.4
2014-Dec-14 05:33N 54°59' E 013°54'6210.4
2014-Dec-13 23:33N 54°32' E 012°17'10 9.7
2014-Dec-13 22:30N 54°24' E 012°06'1010.3
2014-Dec-13 21:33N 54°21' E 011°50'  
2014-Dec-10 04:07N 54°34' E 010°38'5 7.9
2014-Dec-10 03:30N 54°32' E 010°30'8 8.3
2014-Dec-10 02:33N 54°29' E 010°18'9 8.7
2014-Dec-10 01:33N 54°22' E 010°09'1 0.6
2014-Dec-10 00:33N 54°22' E 010°08'0 0.1
2014-Dec-09 23:33N 54°22' E 010°08'0 0.5
2014-Dec-09 22:33N 54°22' E 010°07'0 0.0
2014-Dec-09 21:33N 54°22' E 010°07'5 5.5
2014-Dec-09 20:33N 54°21' E 009°58'7 5.7
2014-Dec-09 19:21N 54°21' E 009°46'1 1.4
2014-Dec-09 18:33N 54°20' E 009°44'30 7.2
2014-Dec-09 14:27N 53°57' E 009°14'3 2.8
2014-Dec-09 13:33N 53°55' E 009°11'5 4.8
2014-Dec-09 12:32N 53°52' E 009°04'1111.6
2014-Dec-09 11:33N 53°52' E 008°44'1111.0
2014-Dec-09 10:33N 53°58' E 008°30'1211.7
2014-Dec-09 09:33N 53°59' E 008°10'80 8.7
2014-Dec-09 00:20N 53°40' E 005°58'7 9.0
2014-Dec-08 23:33N 53°37' E 005°47'9 9.3
2014-Dec-08 22:33N 53°34' E 005°32'10 9.6
2014-Dec-08 21:33N 53°31' E 005°17'10 9.8
2014-Dec-08 20:33N 53°28' E 005°01'40 9.3
2014-Dec-08 16:15N 52°57' E 004°20'7 9.4
2014-Dec-08 15:33N 52°51' E 004°15'9 9.1
2014-Dec-08 14:33N 52°43' E 004°07'9 8.7
2014-Dec-08 13:33N 52°37' E 003°57'85 8.1
2014-Dec-08 03:04N 51°35' E 002°23'510.3
2014-Dec-08 02:33N 51°31' E 002°17'1010.2
2014-Dec-08 01:31N 51°22' E 002°09'1010.1
2014-Dec-08 00:33N 51°13' E 002°01'1110.7
2014-Dec-07 23:33N 51°08' E 001°46'9 9.1
2014-Dec-07 22:32N 51°00' E 001°37'  
Track history (hours):
 
Tides and Currents Weather Stations Pressure Air Temp Water Temp Dewpoint Dewpoint Depression Visibility Wind Speed Wind Dir Waves Ship Positions

Keret

Last reported at 2014-Dec-14 11:08 UTC. Time now 2014-Dec-21 04:04 UTC.
Position N 55°34' E 015°13'.

Length 82 m; draft 3.2 m.

Type: Cargo ship. MMSI: 273333000.

Date/timePositionNaut miles runAvg speedWind from/ knotsBaromVisibWave heightAir tempDewpointWater temp
2014-Dec-14 11:08N 55°34' E 015°13'610.3
2014-Dec-14 10:33N 55°31' E 015°03'1010.2
2014-Dec-14 09:33N 55°26' E 014°48'1010.3
2014-Dec-14 08:33N 55°20' E 014°33'1110.7
2014-Dec-14 07:33N 55°11' E 014°22'1110.6
2014-Dec-14 06:33N 55°03' E 014°11'1010.4
2014-Dec-14 05:33N 54°59' E 013°54'6210.4
2014-Dec-13 23:33N 54°32' E 012°17'10 9.7
2014-Dec-13 22:30N 54°24' E 012°06'1010.3
2014-Dec-13 21:33N 54°21' E 011°50'  
2014-Dec-10 04:07N 54°34' E 010°38'5 7.9
2014-Dec-10 03:30N 54°32' E 010°30'8 8.3
2014-Dec-10 02:33N 54°29' E 010°18'9 8.7
2014-Dec-10 01:33N 54°22' E 010°09'1 0.6
2014-Dec-10 00:33N 54°22' E 010°08'0 0.1
2014-Dec-09 23:33N 54°22' E 010°08'0 0.5
2014-Dec-09 22:33N 54°22' E 010°07'0 0.0
2014-Dec-09 21:33N 54°22' E 010°07'5 5.5
2014-Dec-09 20:33N 54°21' E 009°58'7 5.7
2014-Dec-09 19:21N 54°21' E 009°46'1 1.4
2014-Dec-09 18:33N 54°20' E 009°44'30 7.2
2014-Dec-09 14:27N 53°57' E 009°14'3 2.8
2014-Dec-09 13:33N 53°55' E 009°11'5 4.8
2014-Dec-09 12:32N 53°52' E 009°04'1111.6
2014-Dec-09 11:33N 53°52' E 008°44'1111.0
2014-Dec-09 10:33N 53°58' E 008°30'1211.7
2014-Dec-09 09:33N 53°59' E 008°10'80 8.7
2014-Dec-09 00:20N 53°40' E 005°58'7 9.0
2014-Dec-08 23:33N 53°37' E 005°47'9 9.3
2014-Dec-08 22:33N 53°34' E 005°32'10 9.6
2014-Dec-08 21:33N 53°31' E 005°17'10 9.8
2014-Dec-08 20:33N 53°28' E 005°01'40 9.3
2014-Dec-08 16:15N 52°57' E 004°20'7 9.4
2014-Dec-08 15:33N 52°51' E 004°15'9 9.1
2014-Dec-08 14:33N 52°43' E 004°07'9 8.7
2014-Dec-08 13:33N 52°37' E 003°57'85 8.1
2014-Dec-08 03:04N 51°35' E 002°23'510.3
2014-Dec-08 02:33N 51°31' E 002°17'1010.2
2014-Dec-08 01:31N 51°22' E 002°09'1010.1
2014-Dec-08 00:33N 51°13' E 002°01'1110.7
2014-Dec-07 23:33N 51°08' E 001°46'9 9.1
2014-Dec-07 22:32N 51°00' E 001°37'  

Dump ship's entire track history